Time;durP1;ratioP1;P1;durP2;ratioP2;P2;SDS_P1;SDS_P2;PMS_P1;PMS_P2;Temp;Humidity;BMP_temperature;BMP_pressure;BME280_temperature;BME280_humidity;BME280_pressure;Samples;Min_cycle;Max_cycle;Signal;HPM_P1;HPM_P2
2022/03/24 00:02:32;;;;;;;30.52;16.65;;;;;;;4.84;67.72;101598.28;20857778;28;20081;-68
2022/03/24 00:12:35;;;;;;;29.52;16.20;;;;;;;4.71;68.72;101595.31;20857591;28;20049;-68
2022/03/24 00:22:36;;;;;;;31.90;16.23;;;;;;;4.58;68.75;101600.16;20857538;28;20045;-68
2022/03/24 00:32:38;;;;;;;32.60;16.65;;;;;;;4.42;71.04;101603.16;20856684;28;20056;-69
2022/03/24 00:42:39;;;;;;;32.28;16.20;;;;;;;4.33;71.21;101589.94;20857294;28;20099;-68
2022/03/24 00:52:41;;;;;;;29.42;15.90;;;;;;;4.19;71.13;101583.47;20856619;28;20118;-68
2022/03/24 01:02:45;;;;;;;32.45;17.15;;;;;;;4.08;71.06;101588.34;20854842;28;20052;-67
2022/03/24 01:12:48;;;;;;;29.27;16.35;;;;;;;3.95;73.04;101581.03;20854697;28;20600;-67
2022/03/24 01:22:50;;;;;;;34.08;17.35;;;;;;;3.83;72.27;101574.66;20854286;28;20041;-68
2022/03/24 01:32:51;;;;;;;35.35;17.77;;;;;;;3.62;72.83;101579.16;20855752;28;20053;-68
2022/03/24 01:42:54;;;;;;;31.42;17.02;;;;;;;3.41;74.76;101583.66;20866065;28;20045;-68
2022/03/24 01:52:56;;;;;;;35.88;17.67;;;;;;;3.26;74.63;101569.38;20869822;28;20079;-68
2022/03/24 02:03:03;;;;;;;32.03;17.23;;;;;;;3.16;76.63;101581.94;20863358;28;20045;-69
2022/03/24 02:13:05;;;;;;;34.35;18.17;;;;;;;3.10;77.43;101572.28;20866767;28;20073;-68
2022/03/24 02:23:07;;;;;;;32.65;18.85;;;;;;;2.92;78.84;101571.66;20865714;28;20049;-69
2022/03/24 02:33:08;;;;;;;34.65;17.90;;;;;;;2.81;80.25;101568.69;20864910;28;20053;-69
2022/03/24 02:43:10;;;;;;;32.92;17.58;;;;;;;2.75;80.71;101564.19;20866188;28;20107;-68
2022/03/24 02:53:11;;;;;;;35.95;18.83;;;;;;;2.66;81.64;101571.63;20864358;28;20631;-68
2022/03/24 03:03:13;;;;;;;35.58;18.38;;;;;;;2.58;82.40;101565.31;20863112;28;20045;-68
2022/03/24 03:13:14;;;;;;;35.33;19.25;;;;;;;2.49;82.46;101564.97;20862086;28;20068;-67
2022/03/24 03:23:16;;;;;;;36.83;18.15;;;;;;;2.44;82.45;101567.41;20860888;28;20050;-67
2022/03/24 03:33:17;;;;;;;36.85;19.58;;;;;;;2.29;83.56;101587.53;20858700;28;20052;-68
2022/03/24 03:43:19;;;;;;;37.65;18.38;;;;;;;2.25;83.30;101585.66;20860014;28;20049;-68
2022/03/24 03:53:22;;;;;;;37.28;19.25;;;;;;;2.03;84.27;101595.19;20858749;28;20065;-68
2022/03/24 04:03:24;;;;;;;42.15;19.65;;;;;;;1.98;85.68;101590.69;20856998;28;20564;-68
2022/03/24 04:13:26;;;;;;;41.00;19.60;;;;;;;1.88;86.77;101588.56;20855094;28;20053;-67
2022/03/24 04:23:27;;;;;;;38.95;20.08;;;;;;;1.93;86.46;101587.91;20857281;28;20054;-67
2022/03/24 04:33:29;;;;;;;37.58;20.05;;;;;;;1.85;85.89;101594.47;20855921;28;20049;-68
2022/03/24 04:43:31;;;;;;;37.40;18.80;;;;;;;1.74;87.02;101595.78;20857541;28;20053;-68
2022/03/24 04:53:33;;;;;;;37.78;19.98;;;;;;;1.67;87.53;101612.69;20856465;28;20075;-68
2022/03/24 05:03:35;;;;;;;34.45;18.40;;;;;;;1.59;88.13;101621.00;20856817;28;20107;-68
2022/03/24 05:13:36;;;;;;;34.72;18.70;;;;;;;1.56;88.84;101620.84;20857531;28;20140;-68
2022/03/24 05:23:38;;;;;;;37.58;20.10;;;;;;;1.53;86.92;101617.34;20872780;28;20495;-69
2022/03/24 05:33:39;;;;;;;36.40;19.15;;;;;;;1.46;88.87;101633.38;20870874;28;20103;-68
2022/03/24 05:44:02;;;;;;;40.30;20.00;;;;;;;1.44;88.23;101632.44;20869332;28;20520;-67
2022/03/24 05:54:03;;;;;;;41.55;20.23;;;;;;;1.48;89.33;101638.59;20859186;28;20495;-68
2022/03/24 06:04:04;;;;;;;47.70;21.25;;;;;;;1.68;88.27;101637.72;20869093;28;20543;-70
2022/03/24 06:14:12;;;;;;;42.42;21.92;;;;;;;1.85;87.64;101645.25;20871526;28;20057;-70
2022/03/24 06:24:14;;;;;;;43.33;21.58;;;;;;;2.14;87.66;101642.09;20934473;22;20051;-71
2022/03/24 06:34:16;;;;;;;44.70;21.50;;;;;;;2.39;88.37;101645.59;20948884;28;20056;-72
2022/03/24 06:44:19;;;;;;;43.60;22.00;;;;;;;2.92;87.17;101654.44;20948987;28;20402;-71
2022/03/24 06:54:20;;;;;;;40.90;21.05;;;;;;;3.43;86.42;101638.94;20948575;28;20102;-71
2022/03/24 07:04:22;;;;;;;44.80;23.65;;;;;;;3.96;86.36;101644.97;20942208;28;20070;-71
2022/03/24 07:14:24;;;;;;;50.83;28.42;;;;;;;4.36;84.28;101647.06;20930366;28;20136;-70
2022/03/24 07:24:26;;;;;;;52.47;27.02;;;;;;;4.73;80.90;101643.78;20901386;28;20086;-72
2022/03/24 07:34:28;;;;;;;43.03;23.40;;;;;;;5.18;76.82;101651.09;20904084;28;20041;-72
2022/03/24 07:44:30;;;;;;;44.40;23.75;;;;;;;5.71;73.98;101643.75;20932023;28;20045;-71
2022/03/24 07:54:55;;;;;;;44.88;23.27;;;;;;;6.30;70.34;101648.59;20921763;28;20453;-72
2022/03/24 08:04:56;;;;;;;42.17;21.50;;;;;;;6.61;66.93;101645.81;20927607;28;20045;-71
2022/03/24 08:14:58;;;;;;;37.90;21.10;;;;;;;7.41;62.72;101645.56;20935474;28;20115;-71
2022/03/24 08:25:02;;;;;;;37.88;20.45;;;;;;;8.01;61.25;101640.44;20939763;28;20076;-71
2022/03/24 08:35:04;;;;;;;39.47;21.95;;;;;;;8.54;59.91;101643.78;20935131;28;20079;-70
2022/03/24 08:45:08;;;;;;;37.92;22.25;;;;;;;9.13;55.08;101647.94;20933563;28;20050;-72
2022/03/24 08:55:13;;;;;;;39.90;21.58;;;;;;;9.39;54.61;101630.78;20941751;28;20048;-73
2022/03/24 09:05:19;;;;;;;41.93;22.77;;;;;;;9.93;51.36;101639.91;20948856;28;20045;-73
2022/03/24 09:15:20;;;;;;;46.55;23.27;;;;;;;10.48;49.18;101640.25;20948844;28;20490;-73
2022/03/24 09:25:22;;;;;;;42.20;23.35;;;;;;;10.94;48.52;101635.19;20950450;28;20123;-71
2022/03/24 09:35:24;;;;;;;44.78;23.05;;;;;;;11.23;46.33;101630.00;20945751;28;20063;-70
2022/03/24 09:45:26;;;;;;;41.92;22.50;;;;;;;11.82;44.84;101636.16;20955389;28;20098;-71
2022/03/24 09:55:32;;;;;;;47.80;23.05;;;;;;;12.26;44.22;101630.81;20955272;28;20048;-71
2022/03/24 10:05:33;;;;;;;40.85;22.25;;;;;;;12.74;41.65;101613.13;20927168;28;20490;-71
2022/03/24 10:15:38;;;;;;;42.67;23.50;;;;;;;13.05;41.60;101607.66;20943453;28;20102;-71
2022/03/24 10:25:40;;;;;;;41.28;22.55;;;;;;;13.30;41.60;101605.75;20942322;28;20090;-71
2022/03/24 10:35:46;;;;;;;38.83;22.55;;;;;;;13.82;40.07;101603.53;20942213;28;20048;-71
2022/03/24 10:45:47;;;;;;;43.55;22.63;;;;;;;13.93;38.04;101603.44;20938100;28;20083;-71
2022/03/24 10:55:59;;;;;;;38.92;20.95;;;;;;;14.20;38.05;101593.50;20939890;28;20075;-73
2022/03/24 11:06:17;;;;;;;39.80;22.75;;;;;;;14.84;35.56;101576.88;20937069;28;20457;-72
2022/03/24 11:16:22;;;;;;;41.85;22.73;;;;;;;15.11;36.15;101573.81;20934027;28;20123;-73
2022/03/24 11:26:25;;;;;;;42.40;22.70;;;;;;;15.39;35.18;101565.47;20939579;28;20557;-72
2022/03/24 11:36:28;;;;;;;36.28;20.23;;;;;;;15.79;32.31;101548.94;20937267;28;20086;-73
2022/03/24 11:46:51;;;;;;;42.13;21.30;;;;;;;16.03;31.25;101527.31;20936371;28;20132;-72
2022/03/24 11:57:21;;;;;;;32.03;19.80;;;;;;;16.44;30.12;101516.78;20936431;28;20452;-72
2022/03/24 12:07:24;;;;;;;36.65;20.60;;;;;;;16.61;30.99;101504.91;20929334;28;20053;-72
2022/03/24 12:17:34;;;;;;;36.67;21.27;;;;;;;16.87;30.74;101484.97;20935678;28;20053;-73
2022/03/24 12:27:57;;;;;;;36.03;21.38;;;;;;;16.99;29.51;101468.78;21045770;22;20075;-83
2022/03/24 12:37:59;;;;;;;28.98;18.50;;;;;;;17.22;26.72;101448.78;20973648;28;20097;-83
2022/03/24 12:48:10;;;;;;;34.53;21.20;;;;;;;17.27;27.41;101444.25;20893324;28;20049;-83
2022/03/24 12:58:16;;;;;;;30.30;17.15;;;;;;;17.64;25.16;101426.44;20908972;28;20073;-83
2022/03/24 13:08:18;;;;;;;33.03;19.65;;;;;;;17.15;26.50;101411.91;20967671;28;20044;-84
2022/03/24 13:18:24;;;;;;;32.83;20.55;;;;;;;17.46;26.17;101408.41;20927505;28;20502;-81
2022/03/24 13:28:28;;;;;;;32.58;17.15;;;;;;;17.78;24.17;101401.38;20910673;28;20048;-80
2022/03/24 13:38:29;;;;;;;30.57;18.70;;;;;;;17.91;23.92;101381.50;20958813;28;20048;-85
2022/03/24 13:48:31;;;;;;;28.95;17.90;;;;;;;17.91;23.63;101370.91;20967996;28;20263;-83
2022/03/24 13:58:32;;;;;;;28.40;17.67;;;;;;;18.06;23.86;101365.16;20930798;28;20098;-83
2022/03/24 14:08:42;;;;;;;28.15;18.00;;;;;;;18.02;24.78;101347.63;20962811;28;20448;-83
2022/03/24 14:19:03;;;;;;;29.55;17.17;;;;;;;18.14;23.15;101341.91;20967967;28;20196;-85
2022/03/24 14:29:17;;;;;;;34.15;19.13;;;;;;;18.15;24.41;101321.56;20950686;28;20095;-84
2022/03/24 14:39:21;;;;;;;30.20;18.33;;;;;;;17.70;25.40;101317.66;20950692;28;20040;-83
2022/03/24 14:49:22;;;;;;;34.35;20.17;;;;;;;18.28;24.59;101306.16;20923061;28;20048;-83
2022/03/24 14:59:24;;;;;;;32.78;20.05;;;;;;;18.28;24.30;101295.53;20928075;28;20048;-83
2022/03/24 15:09:26;;;;;;;36.40;18.73;;;;;;;18.09;25.10;101290.84;20958067;28;20097;-84
2022/03/24 15:19:27;;;;;;;30.75;19.73;;;;;;;18.31;24.11;101287.50;20925087;28;20443;-82
2022/03/24 15:29:29;;;;;;;29.40;18.92;;;;;;;18.17;24.36;101272.91;20938290;28;20122;-82
2022/03/24 15:39:31;;;;;;;30.13;18.90;;;;;;;18.25;24.53;101269.97;20979483;28;20530;-82
2022/03/24 15:49:32;;;;;;;35.42;18.48;;;;;;;18.14;25.18;101262.41;21056171;28;20037;-84
2022/03/24 15:59:34;;;;;;;30.80;18.52;;;;;;;17.76;25.40;101265.44;20960192;28;20090;-86
2022/03/24 16:09:36;;;;;;;29.52;17.13;;;;;;;17.63;25.39;101268.44;20941136;28;20045;-86
2022/03/24 16:19:38;;;;;;;26.70;16.63;;;;;;;17.92;24.70;101272.00;20928081;28;20125;-85
2022/03/24 16:29:39;;;;;;;26.98;15.82;;;;;;;17.70;24.83;101275.28;20924042;28;20076;-85
2022/03/24 16:39:41;;;;;;;43.85;16.55;;;;;;;17.54;25.36;101274.03;20925380;28;20040;-85
2022/03/24 16:49:42;;;;;;;32.25;15.43;;;;;;;17.39;25.47;101285.94;20942170;28;20102;-84
2022/03/24 16:59:44;;;;;;;26.60;14.88;;;;;;;17.12;26.16;101290.25;20932840;28;20421;-83
2022/03/24 17:09:46;;;;;;;27.80;14.30;;;;;;;16.80;27.32;101295.56;20941119;28;20095;-83
2022/03/24 17:19:48;;;;;;;35.42;21.17;;;;;;;16.53;27.34;101295.38;20961991;28;20048;-87
2022/03/24 17:29:50;;;;;;;25.98;16.05;;;;;;;16.00;28.18;101308.16;20946463;28;20106;-85
2022/03/24 17:39:51;;;;;;;23.63;12.85;;;;;;;15.47;30.07;101309.28;20919083;28;20040;-85
2022/03/24 17:49:53;;;;;;;19.85;11.65;;;;;;;14.72;31.68;101313.44;20989454;28;20044;-86
2022/03/24 17:59:55;;;;;;;21.98;12.32;;;;;;;14.07;33.41;101330.28;20957297;28;20049;-85
2022/03/24 18:09:58;;;;;;;18.75;11.10;;;;;;;13.64;34.75;101335.28;20949271;28;20045;-83
2022/03/24 18:19:59;;;;;;;22.27;12.13;;;;;;;13.40;35.15;101356.66;20944014;28;20076;-84
2022/03/24 18:30:03;;;;;;;23.92;13.25;;;;;;;13.20;35.53;101359.47;20949846;28;20052;-85
2022/03/24 18:40:05;;;;;;;23.08;12.73;;;;;;;12.81;37.32;101359.00;20953623;28;20049;-85
2022/03/24 18:50:08;;;;;;;27.38;14.60;;;;;;;12.89;36.77;101358.91;21055184;28;20049;-87
2022/03/24 19:00:10;;;;;;;28.25;15.50;;;;;;;12.53;37.67;101361.88;20985304;28;20056;-85
2022/03/24 19:10:12;;;;;;;27.13;14.07;;;;;;;12.45;38.32;101368.06;20990912;28;20052;-84
2022/03/24 19:20:17;;;;;;;32.75;16.33;;;;;;;12.42;38.46;101366.34;20970928;28;20052;-84
2022/03/24 19:30:19;;;;;;;;;;;;;;;12.01;40.19;101372.75;20964274;28;20045;-84
2022/03/24 19:40:25;;;;;;;28.15;14.20;;;;;;;11.47;42.85;101374.75;20929355;28;20011;-85
2022/03/24 19:50:29;;;;;;;23.10;12.18;;;;;;;10.74;45.28;101382.78;20944934;28;20057;-84
2022/03/24 20:00:32;;;;;;;25.27;13.18;;;;;;;10.36;46.66;101386.25;20932571;28;20056;-84
2022/03/24 20:10:34;;;;;;;31.05;14.13;;;;;;;10.20;46.39;101400.16;20938333;28;20052;-84
2022/03/24 20:20:37;;;;;;;36.92;17.73;;;;;;;10.48;45.91;101391.50;20934529;28;20066;-85
2022/03/24 20:30:39;;;;;;;36.33;16.85;;;;;;;10.34;47.13;101401.06;20947683;28;20106;-86
2022/03/24 20:40:41;;;;;;;38.72;18.60;;;;;;;10.15;47.57;101399.25;20951938;28;20045;-85
2022/03/24 20:50:43;;;;;;;35.72;17.13;;;;;;;9.87;48.71;101404.44;20953828;28;20056;-85
2022/03/24 21:00:45;;;;;;;34.72;17.90;;;;;;;9.67;49.05;101404.34;20935013;28;20040;-85
2022/03/24 21:10:48;;;;;;;38.10;18.13;;;;;;;9.58;48.78;101416.50;20951922;28;20052;-84
2022/03/24 21:20:50;;;;;;;32.92;17.90;;;;;;;9.42;49.50;101412.97;20938267;28;20114;-84
2022/03/24 21:30:51;;;;;;;34.78;18.08;;;;;;;8.88;53.92;101423.06;20955643;28;20066;-84
2022/03/24 21:40:56;;;;;;;32.58;17.92;;;;;;;8.57;53.62;101428.88;20934424;28;20088;-84
2022/03/24 21:50:58;;;;;;;35.40;17.87;;;;;;;8.59;52.09;101417.63;20931338;28;20147;-84
2022/03/24 22:00:59;;;;;;;37.85;18.85;;;;;;;8.61;51.59;101428.06;21007381;28;20299;-84
2022/03/24 22:11:02;;;;;;;40.15;18.05;;;;;;;8.75;49.43;101431.66;21046756;28;20053;-83
2022/03/24 22:21:03;;;;;;;36.83;18.38;;;;;;;8.68;49.26;101437.72;20959668;28;20067;-83
2022/03/24 22:31:05;;;;;;;34.72;17.45;;;;;;;8.45;51.64;101453.16;20919082;28;20790;-83
2022/03/24 22:41:07;;;;;;;41.42;18.95;;;;;;;7.93;55.76;101456.03;20974959;28;20082;-84
2022/03/24 22:51:09;;;;;;;36.08;18.80;;;;;;;7.59;57.97;101452.13;20950990;28;20144;-83
2022/03/24 23:01:14;;;;;;;40.08;20.42;;;;;;;7.35;61.09;101442.25;20939979;28;20052;-83
2022/03/24 23:11:37;;;;;;;37.65;20.50;;;;;;;7.21;61.13;101443.75;20956161;28;20443;-83
2022/03/24 23:21:46;;;;;;;43.22;19.83;;;;;;;6.99;60.07;101452.09;20965978;28;20048;-83
2022/03/24 23:31:48;;;;;;;39.15;18.42;;;;;;;6.88;58.81;101439.78;20924258;28;20098;-84
2022/03/24 23:41:50;;;;;;;37.55;17.92;;;;;;;6.73;61.55;101442.16;20987327;28;20044;-84
2022/03/24 23:51:53;;;;;;;31.77;16.65;;;;;;;6.62;64.13;101441.09;20960535;28;20044;-83
